sensor_id;sensor_type;location;lat;lon;timestamp;P1;durP1;ratioP1;P2;durP2;ratioP2
15398;SDS011;7797;51.428;6.756;2022-08-27T00:00:13;6.73;;;2.80;;
15398;SDS011;7797;51.428;6.756;2022-08-27T00:02:42;6.47;;;2.70;;
15398;SDS011;7797;51.428;6.756;2022-08-27T00:05:09;5.13;;;2.77;;
15398;SDS011;7797;51.428;6.756;2022-08-27T00:07:37;7.23;;;3.00;;
15398;SDS011;7797;51.428;6.756;2022-08-27T00:10:05;4.17;;;2.97;;
15398;SDS011;7797;51.428;6.756;2022-08-27T00:12:33;8.80;;;3.73;;
15398;SDS011;7797;51.428;6.756;2022-08-27T00:15:00;4.60;;;3.20;;
15398;SDS011;7797;51.428;6.756;2022-08-27T00:17:27;5.23;;;3.30;;
15398;SDS011;7797;51.428;6.756;2022-08-27T00:19:54;6.43;;;3.20;;
15398;SDS011;7797;51.428;6.756;2022-08-27T00:22:21;4.77;;;3.20;;
15398;SDS011;7797;51.428;6.756;2022-08-27T00:24:48;6.67;;;3.00;;
15398;SDS011;7797;51.428;6.756;2022-08-27T00:27:15;4.53;;;2.77;;
15398;SDS011;7797;51.428;6.756;2022-08-27T00:29:42;6.97;;;3.00;;
15398;SDS011;7797;51.428;6.756;2022-08-27T00:32:09;5.80;;;2.80;;
15398;SDS011;7797;51.428;6.756;2022-08-27T00:34:36;6.20;;;2.60;;
15398;SDS011;7797;51.428;6.756;2022-08-27T00:37:02;6.97;;;2.80;;
15398;SDS011;7797;51.428;6.756;2022-08-27T00:39:32;6.27;;;2.93;;
15398;SDS011;7797;51.428;6.756;2022-08-27T00:41:59;4.73;;;2.60;;
15398;SDS011;7797;51.428;6.756;2022-08-27T00:44:26;6.27;;;2.63;;
15398;SDS011;7797;51.428;6.756;2022-08-27T00:46:54;4.70;;;2.20;;
15398;SDS011;7797;51.428;6.756;2022-08-27T00:49:27;6.90;;;2.73;;
15398;SDS011;7797;51.428;6.756;2022-08-27T00:51:59;6.27;;;2.50;;
15398;SDS011;7797;51.428;6.756;2022-08-27T00:54:30;4.83;;;2.50;;
15398;SDS011;7797;51.428;6.756;2022-08-27T00:56:58;2.60;;;2.37;;
15398;SDS011;7797;51.428;6.756;2022-08-27T00:59:25;2.70;;;2.40;;
15398;SDS011;7797;51.428;6.756;2022-08-27T01:01:56;3.93;;;2.30;;
15398;SDS011;7797;51.428;6.756;2022-08-27T01:04:41;6.77;;;2.50;;
15398;SDS011;7797;51.428;6.756;2022-08-27T01:07:10;4.47;;;2.50;;
15398;SDS011;7797;51.428;6.756;2022-08-27T01:09:37;4.70;;;2.60;;
15398;SDS011;7797;51.428;6.756;2022-08-27T01:12:04;5.43;;;2.33;;
15398;SDS011;7797;51.428;6.756;2022-08-27T01:14:31;4.33;;;2.60;;
15398;SDS011;7797;51.428;6.756;2022-08-27T01:16:58;5.00;;;2.30;;
15398;SDS011;7797;51.428;6.756;2022-08-27T01:19:33;5.40;;;2.50;;
15398;SDS011;7797;51.428;6.756;2022-08-27T01:24:57;6.07;;;2.40;;
15398;SDS011;7797;51.428;6.756;2022-08-27T01:27:26;4.07;;;2.40;;
15398;SDS011;7797;51.428;6.756;2022-08-27T01:29:54;7.37;;;2.60;;
15398;SDS011;7797;51.428;6.756;2022-08-27T01:32:28;4.20;;;2.80;;
15398;SDS011;7797;51.428;6.756;2022-08-27T01:34:57;5.37;;;3.03;;
15398;SDS011;7797;51.428;6.756;2022-08-27T01:37:25;4.40;;;3.03;;
15398;SDS011;7797;51.428;6.756;2022-08-27T01:39:53;4.73;;;2.43;;
15398;SDS011;7797;51.428;6.756;2022-08-27T01:42:28;6.37;;;4.33;;
15398;SDS011;7797;51.428;6.756;2022-08-27T01:45:02;9.47;;;5.33;;
15398;SDS011;7797;51.428;6.756;2022-08-27T01:47:31;7.37;;;4.37;;
15398;SDS011;7797;51.428;6.756;2022-08-27T01:49:59;4.70;;;3.67;;
15398;SDS011;7797;51.428;6.756;2022-08-27T01:52:27;6.97;;;3.30;;
15398;SDS011;7797;51.428;6.756;2022-08-27T01:54:55;5.50;;;2.60;;
15398;SDS011;7797;51.428;6.756;2022-08-27T01:57:22;3.77;;;2.40;;
15398;SDS011;7797;51.428;6.756;2022-08-27T01:59:51;5.87;;;2.30;;
15398;SDS011;7797;51.428;6.756;2022-08-27T02:02:18;4.40;;;2.30;;
15398;SDS011;7797;51.428;6.756;2022-08-27T02:04:45;3.70;;;2.13;;
15398;SDS011;7797;51.428;6.756;2022-08-27T02:07:12;3.53;;;1.70;;
15398;SDS011;7797;51.428;6.756;2022-08-27T02:09:39;6.07;;;2.00;;
15398;SDS011;7797;51.428;6.756;2022-08-27T02:12:06;4.67;;;2.23;;
15398;SDS011;7797;51.428;6.756;2022-08-27T02:14:32;7.17;;;2.60;;
15398;SDS011;7797;51.428;6.756;2022-08-27T02:16:59;5.17;;;2.27;;
15398;SDS011;7797;51.428;6.756;2022-08-27T02:19:27;5.33;;;2.27;;
15398;SDS011;7797;51.428;6.756;2022-08-27T02:21:54;7.23;;;2.40;;
15398;SDS011;7797;51.428;6.756;2022-08-27T02:24:22;3.00;;;2.10;;
15398;SDS011;7797;51.428;6.756;2022-08-27T02:26:48;8.40;;;2.47;;
15398;SDS011;7797;51.428;6.756;2022-08-27T02:29:15;4.00;;;1.93;;
15398;SDS011;7797;51.428;6.756;2022-08-27T02:31:41;5.43;;;2.43;;
15398;SDS011;7797;51.428;6.756;2022-08-27T02:34:08;6.03;;;2.00;;
15398;SDS011;7797;51.428;6.756;2022-08-27T02:36:36;5.63;;;2.10;;
15398;SDS011;7797;51.428;6.756;2022-08-27T02:39:04;4.77;;;2.10;;
15398;SDS011;7797;51.428;6.756;2022-08-27T02:41:31;3.77;;;1.90;;
15398;SDS011;7797;51.428;6.756;2022-08-27T02:43:58;4.83;;;2.10;;
15398;SDS011;7797;51.428;6.756;2022-08-27T02:46:26;4.80;;;2.20;;
15398;SDS011;7797;51.428;6.756;2022-08-27T02:48:54;7.10;;;2.73;;
15398;SDS011;7797;51.428;6.756;2022-08-27T02:51:21;3.90;;;2.10;;
15398;SDS011;7797;51.428;6.756;2022-08-27T02:53:48;4.90;;;2.20;;
15398;SDS011;7797;51.428;6.756;2022-08-27T02:56:15;7.20;;;2.47;;
15398;SDS011;7797;51.428;6.756;2022-08-27T02:58:47;8.23;;;3.60;;
15398;SDS011;7797;51.428;6.756;2022-08-27T03:01:14;5.23;;;3.30;;
15398;SDS011;7797;51.428;6.756;2022-08-27T03:03:40;6.67;;;2.40;;
15398;SDS011;7797;51.428;6.756;2022-08-27T03:06:07;5.67;;;2.60;;
15398;SDS011;7797;51.428;6.756;2022-08-27T03:08:34;4.00;;;2.40;;
15398;SDS011;7797;51.428;6.756;2022-08-27T03:11:18;4.67;;;2.43;;
15398;SDS011;7797;51.428;6.756;2022-08-27T03:13:45;8.07;;;2.97;;
15398;SDS011;7797;51.428;6.756;2022-08-27T03:16:12;6.47;;;2.60;;
15398;SDS011;7797;51.428;6.756;2022-08-27T03:18:39;4.93;;;2.10;;
15398;SDS011;7797;51.428;6.756;2022-08-27T03:21:05;6.23;;;2.57;;
15398;SDS011;7797;51.428;6.756;2022-08-27T03:23:33;6.37;;;2.43;;
15398;SDS011;7797;51.428;6.756;2022-08-27T03:26:03;6.23;;;2.30;;
15398;SDS011;7797;51.428;6.756;2022-08-27T03:28:34;4.77;;;2.50;;
15398;SDS011;7797;51.428;6.756;2022-08-27T03:31:02;8.37;;;2.50;;
15398;SDS011;7797;51.428;6.756;2022-08-27T03:33:33;7.97;;;2.70;;
15398;SDS011;7797;51.428;6.756;2022-08-27T03:36:02;5.13;;;2.97;;
15398;SDS011;7797;51.428;6.756;2022-08-27T03:38:30;10.13;;;3.33;;
15398;SDS011;7797;51.428;6.756;2022-08-27T03:40:57;4.23;;;2.47;;
15398;SDS011;7797;51.428;6.756;2022-08-27T03:43:24;3.67;;;2.43;;
15398;SDS011;7797;51.428;6.756;2022-08-27T03:45:51;5.37;;;2.40;;
15398;SDS011;7797;51.428;6.756;2022-08-27T03:48:27;3.13;;;2.40;;
15398;SDS011;7797;51.428;6.756;2022-08-27T03:50:55;6.63;;;2.50;;
15398;SDS011;7797;51.428;6.756;2022-08-27T03:53:21;4.13;;;2.27;;
15398;SDS011;7797;51.428;6.756;2022-08-27T03:55:48;5.13;;;2.20;;
15398;SDS011;7797;51.428;6.756;2022-08-27T03:58:15;6.50;;;2.57;;
15398;SDS011;7797;51.428;6.756;2022-08-27T04:00:42;6.03;;;2.60;;
15398;SDS011;7797;51.428;6.756;2022-08-27T04:03:10;4.37;;;2.17;;
15398;SDS011;7797;51.428;6.756;2022-08-27T04:05:38;5.33;;;2.27;;
15398;SDS011;7797;51.428;6.756;2022-08-27T04:08:07;5.23;;;2.07;;
15398;SDS011;7797;51.428;6.756;2022-08-27T04:10:38;5.40;;;2.30;;
15398;SDS011;7797;51.428;6.756;2022-08-27T04:13:05;4.57;;;2.27;;
15398;SDS011;7797;51.428;6.756;2022-08-27T04:15:32;9.17;;;2.40;;
15398;SDS011;7797;51.428;6.756;2022-08-27T04:18:05;4.87;;;2.33;;
15398;SDS011;7797;51.428;6.756;2022-08-27T04:20:32;4.03;;;2.23;;
15398;SDS011;7797;51.428;6.756;2022-08-27T04:23:01;5.27;;;2.40;;
15398;SDS011;7797;51.428;6.756;2022-08-27T04:25:28;6.77;;;2.60;;
15398;SDS011;7797;51.428;6.756;2022-08-27T04:27:55;7.53;;;2.57;;
15398;SDS011;7797;51.428;6.756;2022-08-27T04:30:21;6.83;;;2.70;;
15398;SDS011;7797;51.428;6.756;2022-08-27T04:32:48;5.13;;;2.40;;
15398;SDS011;7797;51.428;6.756;2022-08-27T04:35:15;3.63;;;2.63;;
15398;SDS011;7797;51.428;6.756;2022-08-27T04:37:42;5.20;;;2.60;;
15398;SDS011;7797;51.428;6.756;2022-08-27T04:40:10;6.70;;;2.90;;
15398;SDS011;7797;51.428;6.756;2022-08-27T04:42:37;8.17;;;2.70;;
15398;SDS011;7797;51.428;6.756;2022-08-27T04:45:04;6.00;;;2.87;;
15398;SDS011;7797;51.428;6.756;2022-08-27T04:47:31;4.20;;;2.57;;
15398;SDS011;7797;51.428;6.756;2022-08-27T04:49:58;4.27;;;2.43;;
15398;SDS011;7797;51.428;6.756;2022-08-27T04:52:25;8.27;;;2.90;;
15398;SDS011;7797;51.428;6.756;2022-08-27T04:54:52;4.10;;;2.60;;
15398;SDS011;7797;51.428;6.756;2022-08-27T04:57:18;4.73;;;2.67;;
15398;SDS011;7797;51.428;6.756;2022-08-27T04:59:46;5.30;;;2.70;;
15398;SDS011;7797;51.428;6.756;2022-08-27T05:02:13;7.20;;;2.67;;
15398;SDS011;7797;51.428;6.756;2022-08-27T05:04:40;6.67;;;2.70;;
15398;SDS011;7797;51.428;6.756;2022-08-27T05:07:07;4.87;;;2.50;;
15398;SDS011;7797;51.428;6.756;2022-08-27T05:09:35;6.47;;;3.10;;
15398;SDS011;7797;51.428;6.756;2022-08-27T05:12:02;5.63;;;2.57;;
15398;SDS011;7797;51.428;6.756;2022-08-27T05:14:29;4.67;;;2.60;;
15398;SDS011;7797;51.428;6.756;2022-08-27T05:16:57;4.87;;;2.70;;
15398;SDS011;7797;51.428;6.756;2022-08-27T05:19:25;3.97;;;2.40;;
15398;SDS011;7797;51.428;6.756;2022-08-27T05:21:52;3.33;;;2.67;;
15398;SDS011;7797;51.428;6.756;2022-08-27T05:24:19;6.47;;;2.37;;
15398;SDS011;7797;51.428;6.756;2022-08-27T05:26:46;4.63;;;2.53;;
15398;SDS011;7797;51.428;6.756;2022-08-27T05:29:13;3.83;;;2.50;;
15398;SDS011;7797;51.428;6.756;2022-08-27T05:31:40;5.17;;;2.63;;
15398;SDS011;7797;51.428;6.756;2022-08-27T05:34:08;6.00;;;2.43;;
15398;SDS011;7797;51.428;6.756;2022-08-27T05:36:42;2.37;;;2.17;;
15398;SDS011;7797;51.428;6.756;2022-08-27T05:39:14;4.87;;;2.27;;
15398;SDS011;7797;51.428;6.756;2022-08-27T05:41:41;3.53;;;2.10;;
15398;SDS011;7797;51.428;6.756;2022-08-27T05:44:09;4.97;;;2.30;;
15398;SDS011;7797;51.428;6.756;2022-08-27T05:46:56;3.10;;;2.00;;
15398;SDS011;7797;51.428;6.756;2022-08-27T05:49:22;5.67;;;2.47;;
15398;SDS011;7797;51.428;6.756;2022-08-27T05:51:49;5.23;;;2.40;;
15398;SDS011;7797;51.428;6.756;2022-08-27T05:54:16;3.90;;;2.30;;
15398;SDS011;7797;51.428;6.756;2022-08-27T05:56:46;7.43;;;2.10;;
15398;SDS011;7797;51.428;6.756;2022-08-27T05:59:15;5.57;;;2.30;;
15398;SDS011;7797;51.428;6.756;2022-08-27T06:02:02;4.97;;;1.97;;
15398;SDS011;7797;51.428;6.756;2022-08-27T06:04:29;3.63;;;2.30;;
15398;SDS011;7797;51.428;6.756;2022-08-27T06:06:56;5.83;;;2.13;;
15398;SDS011;7797;51.428;6.756;2022-08-27T06:09:23;4.53;;;2.13;;
15398;SDS011;7797;51.428;6.756;2022-08-27T06:11:52;8.57;;;2.17;;
15398;SDS011;7797;51.428;6.756;2022-08-27T06:14:19;7.77;;;2.33;;
15398;SDS011;7797;51.428;6.756;2022-08-27T06:16:47;3.03;;;1.73;;
15398;SDS011;7797;51.428;6.756;2022-08-27T06:19:13;2.67;;;2.00;;
15398;SDS011;7797;51.428;6.756;2022-08-27T06:21:41;4.27;;;1.90;;
15398;SDS011;7797;51.428;6.756;2022-08-27T06:24:08;6.53;;;1.87;;
15398;SDS011;7797;51.428;6.756;2022-08-27T06:26:37;2.13;;;1.97;;
15398;SDS011;7797;51.428;6.756;2022-08-27T06:29:05;5.07;;;1.83;;
15398;SDS011;7797;51.428;6.756;2022-08-27T06:31:33;3.70;;;1.90;;
15398;SDS011;7797;51.428;6.756;2022-08-27T06:34:06;2.90;;;2.10;;
15398;SDS011;7797;51.428;6.756;2022-08-27T06:36:37;4.90;;;2.17;;
15398;SDS011;7797;51.428;6.756;2022-08-27T06:39:06;7.40;;;1.90;;
15398;SDS011;7797;51.428;6.756;2022-08-27T06:41:34;3.03;;;1.80;;
15398;SDS011;7797;51.428;6.756;2022-08-27T06:44:01;3.30;;;2.37;;
15398;SDS011;7797;51.428;6.756;2022-08-27T06:46:29;4.47;;;1.90;;
15398;SDS011;7797;51.428;6.756;2022-08-27T06:48:57;3.97;;;2.00;;
15398;SDS011;7797;51.428;6.756;2022-08-27T06:51:27;5.67;;;2.30;;
15398;SDS011;7797;51.428;6.756;2022-08-27T06:53:56;2.90;;;1.90;;
15398;SDS011;7797;51.428;6.756;2022-08-27T06:56:24;2.80;;;2.00;;
15398;SDS011;7797;51.428;6.756;2022-08-27T06:58:54;2.30;;;1.70;;
15398;SDS011;7797;51.428;6.756;2022-08-27T07:01:24;4.37;;;2.20;;
15398;SDS011;7797;51.428;6.756;2022-08-27T07:03:55;9.27;;;2.20;;
15398;SDS011;7797;51.428;6.756;2022-08-27T07:06:24;7.33;;;2.20;;
15398;SDS011;7797;51.428;6.756;2022-08-27T07:08:52;2.50;;;2.10;;
15398;SDS011;7797;51.428;6.756;2022-08-27T07:11:19;4.17;;;1.77;;
15398;SDS011;7797;51.428;6.756;2022-08-27T07:13:49;5.47;;;2.27;;
15398;SDS011;7797;51.428;6.756;2022-08-27T07:16:17;3.30;;;1.87;;
15398;SDS011;7797;51.428;6.756;2022-08-27T07:18:49;3.20;;;1.90;;
15398;SDS011;7797;51.428;6.756;2022-08-27T07:21:16;5.73;;;2.20;;
15398;SDS011;7797;51.428;6.756;2022-08-27T07:23:45;4.77;;;2.00;;
15398;SDS011;7797;51.428;6.756;2022-08-27T07:26:12;2.60;;;2.10;;
15398;SDS011;7797;51.428;6.756;2022-08-27T07:28:40;4.57;;;2.13;;
15398;SDS011;7797;51.428;6.756;2022-08-27T07:31:09;3.37;;;1.80;;
15398;SDS011;7797;51.428;6.756;2022-08-27T07:33:40;2.40;;;1.83;;
15398;SDS011;7797;51.428;6.756;2022-08-27T07:36:16;2.57;;;1.80;;
15398;SDS011;7797;51.428;6.756;2022-08-27T07:38:43;4.50;;;2.03;;
15398;SDS011;7797;51.428;6.756;2022-08-27T07:41:18;6.03;;;2.30;;
15398;SDS011;7797;51.428;6.756;2022-08-27T07:43:45;4.40;;;2.20;;
15398;SDS011;7797;51.428;6.756;2022-08-27T07:46:31;2.67;;;1.77;;
15398;SDS011;7797;51.428;6.756;2022-08-27T07:49:03;2.90;;;1.80;;
15398;SDS011;7797;51.428;6.756;2022-08-27T07:51:29;4.00;;;2.10;;
15398;SDS011;7797;51.428;6.756;2022-08-27T07:53:58;4.73;;;2.00;;
15398;SDS011;7797;51.428;6.756;2022-08-27T07:56:28;2.20;;;2.00;;
15398;SDS011;7797;51.428;6.756;2022-08-27T07:58:54;3.90;;;2.13;;
15398;SDS011;7797;51.428;6.756;2022-08-27T08:01:21;4.77;;;2.23;;
15398;SDS011;7797;51.428;6.756;2022-08-27T08:03:49;5.20;;;1.97;;
15398;SDS011;7797;51.428;6.756;2022-08-27T08:06:16;3.23;;;2.10;;
15398;SDS011;7797;51.428;6.756;2022-08-27T08:08:43;7.47;;;3.47;;
15398;SDS011;7797;51.428;6.756;2022-08-27T08:11:11;3.10;;;2.40;;
15398;SDS011;7797;51.428;6.756;2022-08-27T08:13:39;5.53;;;2.27;;
15398;SDS011;7797;51.428;6.756;2022-08-27T08:16:06;3.23;;;1.97;;
15398;SDS011;7797;51.428;6.756;2022-08-27T08:18:33;3.53;;;2.00;;
15398;SDS011;7797;51.428;6.756;2022-08-27T08:21:01;3.73;;;2.20;;
15398;SDS011;7797;51.428;6.756;2022-08-27T08:23:32;2.80;;;1.80;;
15398;SDS011;7797;51.428;6.756;2022-08-27T08:25:59;4.30;;;2.23;;
15398;SDS011;7797;51.428;6.756;2022-08-27T08:28:27;3.93;;;1.90;;
15398;SDS011;7797;51.428;6.756;2022-08-27T08:30:55;4.37;;;2.00;;
15398;SDS011;7797;51.428;6.756;2022-08-27T08:33:23;4.07;;;2.00;;
15398;SDS011;7797;51.428;6.756;2022-08-27T08:35:50;4.27;;;2.10;;
15398;SDS011;7797;51.428;6.756;2022-08-27T08:38:17;6.33;;;2.13;;
15398;SDS011;7797;51.428;6.756;2022-08-27T08:40:48;3.77;;;2.03;;
15398;SDS011;7797;51.428;6.756;2022-08-27T08:43:29;6.63;;;2.13;;
15398;SDS011;7797;51.428;6.756;2022-08-27T08:46:13;5.63;;;2.07;;
15398;SDS011;7797;51.428;6.756;2022-08-27T08:48:45;2.67;;;1.93;;
15398;SDS011;7797;51.428;6.756;2022-08-27T08:51:16;4.57;;;2.00;;
15398;SDS011;7797;51.428;6.756;2022-08-27T08:54:20;4.27;;;2.00;;
15398;SDS011;7797;51.428;6.756;2022-08-27T08:56:51;3.43;;;1.83;;
15398;SDS011;7797;51.428;6.756;2022-08-27T08:59:25;4.13;;;1.80;;
15398;SDS011;7797;51.428;6.756;2022-08-27T09:01:55;5.07;;;2.00;;
15398;SDS011;7797;51.428;6.756;2022-08-27T09:04:24;2.27;;;2.00;;
15398;SDS011;7797;51.428;6.756;2022-08-27T09:09:47;4.90;;;2.00;;
15398;SDS011;7797;51.428;6.756;2022-08-27T09:12:18;4.20;;;1.80;;
15398;SDS011;7797;51.428;6.756;2022-08-27T09:17:36;4.60;;;2.03;;
15398;SDS011;7797;51.428;6.756;2022-08-27T09:20:03;5.07;;;2.00;;
15398;SDS011;7797;51.428;6.756;2022-08-27T09:22:35;3.27;;;2.10;;
15398;SDS011;7797;51.428;6.756;2022-08-27T09:25:26;3.03;;;2.10;;
15398;SDS011;7797;51.428;6.756;2022-08-27T09:28:09;4.73;;;2.07;;
15398;SDS011;7797;51.428;6.756;2022-08-27T09:30:59;3.40;;;2.23;;
15398;SDS011;7797;51.428;6.756;2022-08-27T09:33:29;3.60;;;2.17;;
15398;SDS011;7797;51.428;6.756;2022-08-27T09:36:16;6.60;;;2.27;;
15398;SDS011;7797;51.428;6.756;2022-08-27T09:38:54;3.47;;;1.80;;
15398;SDS011;7797;51.428;6.756;2022-08-27T09:41:25;4.27;;;2.20;;
15398;SDS011;7797;51.428;6.756;2022-08-27T09:43:58;2.70;;;1.80;;
15398;SDS011;7797;51.428;6.756;2022-08-27T09:46:26;3.77;;;2.07;;
15398;SDS011;7797;51.428;6.756;2022-08-27T09:48:53;2.40;;;1.83;;
15398;SDS011;7797;51.428;6.756;2022-08-27T09:51:22;4.10;;;2.07;;
15398;SDS011;7797;51.428;6.756;2022-08-27T09:56:27;4.57;;;2.13;;
15398;SDS011;7797;51.428;6.756;2022-08-27T09:59:08;3.63;;;1.87;;
15398;SDS011;7797;51.428;6.756;2022-08-27T10:01:50;4.43;;;2.40;;
15398;SDS011;7797;51.428;6.756;2022-08-27T10:04:24;3.57;;;2.60;;
15398;SDS011;7797;51.428;6.756;2022-08-27T10:10:08;4.10;;;2.20;;
15398;SDS011;7797;51.428;6.756;2022-08-27T10:12:45;7.53;;;3.50;;
15398;SDS011;7797;51.428;6.756;2022-08-27T10:15:17;5.60;;;2.93;;
15398;SDS011;7797;51.428;6.756;2022-08-27T10:17:46;5.23;;;2.60;;
15398;SDS011;7797;51.428;6.756;2022-08-27T10:20:31;6.37;;;2.90;;
15398;SDS011;7797;51.428;6.756;2022-08-27T10:28:12;8.77;;;3.40;;
15398;SDS011;7797;51.428;6.756;2022-08-27T10:33:47;7.07;;;3.10;;
15398;SDS011;7797;51.428;6.756;2022-08-27T10:52:15;5.40;;;2.90;;
15398;SDS011;7797;51.428;6.756;2022-08-27T10:54:50;7.40;;;3.13;;
15398;SDS011;7797;51.428;6.756;2022-08-27T11:00:16;4.30;;;2.50;;
15398;SDS011;7797;51.428;6.756;2022-08-27T11:02:49;5.83;;;3.37;;
15398;SDS011;7797;51.428;6.756;2022-08-27T11:05:23;5.63;;;2.80;;
15398;SDS011;7797;51.428;6.756;2022-08-27T11:07:54;5.00;;;2.30;;
15398;SDS011;7797;51.428;6.756;2022-08-27T11:10:33;4.30;;;2.73;;
15398;SDS011;7797;51.428;6.756;2022-08-27T11:13:06;4.47;;;2.10;;
15398;SDS011;7797;51.428;6.756;2022-08-27T11:15:37;3.57;;;2.30;;
15398;SDS011;7797;51.428;6.756;2022-08-27T11:20:53;4.90;;;2.90;;
15398;SDS011;7797;51.428;6.756;2022-08-27T11:23:27;4.67;;;3.07;;
15398;SDS011;7797;51.428;6.756;2022-08-27T11:26:02;4.03;;;2.53;;
15398;SDS011;7797;51.428;6.756;2022-08-27T11:28:32;4.33;;;2.70;;
15398;SDS011;7797;51.428;6.756;2022-08-27T11:31:49;6.07;;;2.70;;
15398;SDS011;7797;51.428;6.756;2022-08-27T11:33:58;6.37;;;2.70;;
15398;SDS011;7797;51.428;6.756;2022-08-27T11:44:24;2.80;;;2.60;;
15398;SDS011;7797;51.428;6.756;2022-08-27T11:46:53;5.57;;;2.70;;
15398;SDS011;7797;51.428;6.756;2022-08-27T11:49:41;3.83;;;2.63;;
15398;SDS011;7797;51.428;6.756;2022-08-27T11:52:10;3.93;;;2.37;;
15398;SDS011;7797;51.428;6.756;2022-08-27T11:54:45;3.27;;;2.43;;
15398;SDS011;7797;51.428;6.756;2022-08-27T11:57:15;6.37;;;2.10;;
15398;SDS011;7797;51.428;6.756;2022-08-27T12:00:13;2.90;;;2.00;;
15398;SDS011;7797;51.428;6.756;2022-08-27T12:02:54;3.10;;;2.20;;
15398;SDS011;7797;51.428;6.756;2022-08-27T12:14:11;5.53;;;3.10;;
15398;SDS011;7797;51.428;6.756;2022-08-27T12:16:55;5.10;;;2.50;;
15398;SDS011;7797;51.428;6.756;2022-08-27T12:22:43;5.00;;;2.40;;
15398;SDS011;7797;51.428;6.756;2022-08-27T12:25:31;3.57;;;2.30;;
15398;SDS011;7797;51.428;6.756;2022-08-27T12:28:03;3.43;;;2.20;;
15398;SDS011;7797;51.428;6.756;2022-08-27T12:30:33;2.20;;;2.00;;
15398;SDS011;7797;51.428;6.756;2022-08-27T12:33:29;2.40;;;2.20;;
15398;SDS011;7797;51.428;6.756;2022-08-27T12:36:09;3.10;;;2.20;;
15398;SDS011;7797;51.428;6.756;2022-08-27T12:38:44;3.30;;;2.23;;
15398;SDS011;7797;51.428;6.756;2022-08-27T12:41:32;4.83;;;2.40;;
15398;SDS011;7797;51.428;6.756;2022-08-27T12:44:14;4.30;;;2.07;;
15398;SDS011;7797;51.428;6.756;2022-08-27T12:46:52;3.60;;;2.13;;
15398;SDS011;7797;51.428;6.756;2022-08-27T12:49:24;2.83;;;2.50;;
15398;SDS011;7797;51.428;6.756;2022-08-27T12:52:10;4.17;;;2.10;;
15398;SDS011;7797;51.428;6.756;2022-08-27T12:57:44;2.30;;;2.10;;
15398;SDS011;7797;51.428;6.756;2022-08-27T13:00:18;5.50;;;2.90;;
15398;SDS011;7797;51.428;6.756;2022-08-27T13:06:01;3.13;;;2.30;;
15398;SDS011;7797;51.428;6.756;2022-08-27T13:08:29;2.67;;;2.00;;
15398;SDS011;7797;51.428;6.756;2022-08-27T13:11:08;2.53;;;2.13;;
15398;SDS011;7797;51.428;6.756;2022-08-27T13:13:47;3.30;;;2.00;;
15398;SDS011;7797;51.428;6.756;2022-08-27T13:16:17;5.23;;;2.17;;
15398;SDS011;7797;51.428;6.756;2022-08-27T13:18:47;3.97;;;2.10;;
15398;SDS011;7797;51.428;6.756;2022-08-27T13:21:22;3.83;;;2.07;;
15398;SDS011;7797;51.428;6.756;2022-08-27T13:23:57;1.90;;;1.73;;
15398;SDS011;7797;51.428;6.756;2022-08-27T13:26:27;3.13;;;2.10;;
15398;SDS011;7797;51.428;6.756;2022-08-27T13:28:56;3.40;;;2.20;;
15398;SDS011;7797;51.428;6.756;2022-08-27T13:31:29;3.72;;;2.42;;
15398;SDS011;7797;51.428;6.756;2022-08-27T13:33:56;3.87;;;2.13;;
15398;SDS011;7797;51.428;6.756;2022-08-27T13:36:28;2.95;;;2.13;;
15398;SDS011;7797;51.428;6.756;2022-08-27T13:38:57;2.47;;;2.05;;
15398;SDS011;7797;51.428;6.756;2022-08-27T13:41:31;3.30;;;1.93;;
15398;SDS011;7797;51.428;6.756;2022-08-27T13:44:20;3.35;;;2.20;;
15398;SDS011;7797;51.428;6.756;2022-08-27T13:46:51;3.53;;;1.98;;
15398;SDS011;7797;51.428;6.756;2022-08-27T13:49:23;2.60;;;2.13;;
15398;SDS011;7797;51.428;6.756;2022-08-27T13:54:57;6.57;;;2.40;;
15398;SDS011;7797;51.428;6.756;2022-08-27T13:57:38;2.80;;;2.60;;
15398;SDS011;7797;51.428;6.756;2022-08-27T14:02:45;4.68;;;2.40;;
15398;SDS011;7797;51.428;6.756;2022-08-27T14:07:50;3.83;;;2.30;;
15398;SDS011;7797;51.428;6.756;2022-08-27T14:10:34;5.23;;;1.90;;
15398;SDS011;7797;51.428;6.756;2022-08-27T14:13:07;4.60;;;2.08;;
15398;SDS011;7797;51.428;6.756;2022-08-27T14:18:05;4.57;;;2.08;;
15398;SDS011;7797;51.428;6.756;2022-08-27T14:20:44;2.40;;;2.20;;
15398;SDS011;7797;51.428;6.756;2022-08-27T14:23:12;2.53;;;1.88;;
15398;SDS011;7797;51.428;6.756;2022-08-27T14:25:39;2.58;;;2.03;;
15398;SDS011;7797;51.428;6.756;2022-08-27T14:28:06;2.35;;;2.13;;
15398;SDS011;7797;51.428;6.756;2022-08-27T14:30:33;3.55;;;2.00;;
15398;SDS011;7797;51.428;6.756;2022-08-27T14:33:00;4.95;;;2.20;;
15398;SDS011;7797;51.428;6.756;2022-08-27T14:35:28;2.10;;;1.90;;
15398;SDS011;7797;51.428;6.756;2022-08-27T14:37:57;2.55;;;1.92;;
15398;SDS011;7797;51.428;6.756;2022-08-27T14:40:24;5.88;;;1.88;;
15398;SDS011;7797;51.428;6.756;2022-08-27T14:42:51;2.10;;;1.77;;
15398;SDS011;7797;51.428;6.756;2022-08-27T14:45:18;3.55;;;1.88;;
15398;SDS011;7797;51.428;6.756;2022-08-27T14:47:46;4.68;;;2.08;;
15398;SDS011;7797;51.428;6.756;2022-08-27T14:50:13;3.65;;;2.10;;
15398;SDS011;7797;51.428;6.756;2022-08-27T14:52:40;3.00;;;1.85;;
15398;SDS011;7797;51.428;6.756;2022-08-27T14:55:07;4.38;;;2.13;;
15398;SDS011;7797;51.428;6.756;2022-08-27T14:57:36;2.13;;;1.92;;
15398;SDS011;7797;51.428;6.756;2022-08-27T15:00:03;4.50;;;2.10;;
15398;SDS011;7797;51.428;6.756;2022-08-27T15:02:32;4.85;;;2.08;;
15398;SDS011;7797;51.428;6.756;2022-08-27T15:04:59;3.40;;;2.50;;
15398;SDS011;7797;51.428;6.756;2022-08-27T15:07:37;4.25;;;2.63;;
15398;SDS011;7797;51.428;6.756;2022-08-27T15:10:06;3.33;;;2.63;;
15398;SDS011;7797;51.428;6.756;2022-08-27T15:12:34;2.90;;;2.30;;
15398;SDS011;7797;51.428;6.756;2022-08-27T15:15:00;2.35;;;1.42;;
15398;SDS011;7797;51.428;6.756;2022-08-27T15:17:29;2.67;;;1.83;;
15398;SDS011;7797;51.428;6.756;2022-08-27T15:20:02;3.53;;;2.10;;
15398;SDS011;7797;51.428;6.756;2022-08-27T15:22:32;3.60;;;2.00;;
15398;SDS011;7797;51.428;6.756;2022-08-27T15:24:59;6.57;;;2.55;;
15398;SDS011;7797;51.428;6.756;2022-08-27T15:27:28;3.15;;;1.98;;
15398;SDS011;7797;51.428;6.756;2022-08-27T15:30:07;5.00;;;2.40;;
15398;SDS011;7797;51.428;6.756;2022-08-27T15:32:36;3.92;;;2.40;;
15398;SDS011;7797;51.428;6.756;2022-08-27T15:35:07;1.95;;;1.73;;
15398;SDS011;7797;51.428;6.756;2022-08-27T15:37:39;2.88;;;2.10;;
15398;SDS011;7797;51.428;6.756;2022-08-27T15:40:07;3.10;;;2.58;;
15398;SDS011;7797;51.428;6.756;2022-08-27T15:42:35;2.45;;;1.98;;
15398;SDS011;7797;51.428;6.756;2022-08-27T15:45:02;2.72;;;1.90;;
15398;SDS011;7797;51.428;6.756;2022-08-27T15:47:30;3.97;;;2.08;;
15398;SDS011;7797;51.428;6.756;2022-08-27T15:49:56;2.28;;;1.92;;
15398;SDS011;7797;51.428;6.756;2022-08-27T15:52:23;2.33;;;2.10;;
15398;SDS011;7797;51.428;6.756;2022-08-27T15:55:05;3.30;;;2.20;;
15398;SDS011;7797;51.428;6.756;2022-08-27T15:57:45;4.03;;;2.55;;
15398;SDS011;7797;51.428;6.756;2022-08-27T16:00:12;5.18;;;2.88;;
15398;SDS011;7797;51.428;6.756;2022-08-27T16:02:39;4.72;;;2.65;;
15398;SDS011;7797;51.428;6.756;2022-08-27T16:05:07;2.17;;;1.90;;
15398;SDS011;7797;51.428;6.756;2022-08-27T16:07:34;4.95;;;2.33;;
15398;SDS011;7797;51.428;6.756;2022-08-27T16:10:02;2.78;;;2.30;;
15398;SDS011;7797;51.428;6.756;2022-08-27T16:12:30;5.60;;;2.20;;
15398;SDS011;7797;51.428;6.756;2022-08-27T16:14:56;4.80;;;2.72;;
15398;SDS011;7797;51.428;6.756;2022-08-27T16:17:23;6.25;;;2.67;;
15398;SDS011;7797;51.428;6.756;2022-08-27T16:19:54;3.88;;;2.03;;
15398;SDS011;7797;51.428;6.756;2022-08-27T16:22:21;3.33;;;2.45;;
15398;SDS011;7797;51.428;6.756;2022-08-27T16:24:48;5.70;;;2.60;;
15398;SDS011;7797;51.428;6.756;2022-08-27T16:27:15;4.00;;;3.13;;
15398;SDS011;7797;51.428;6.756;2022-08-27T16:29:42;4.35;;;2.92;;
15398;SDS011;7797;51.428;6.756;2022-08-27T16:32:10;10.25;;;3.13;;
15398;SDS011;7797;51.428;6.756;2022-08-27T16:34:39;3.13;;;2.40;;
15398;SDS011;7797;51.428;6.756;2022-08-27T16:37:06;3.92;;;2.50;;
15398;SDS011;7797;51.428;6.756;2022-08-27T16:39:33;2.72;;;2.15;;